createdAt,value
2022-10-17T00:01:06.164Z,25.15
2022-10-17T00:03:35.819Z,17.75
2022-10-17T00:06:15.279Z,24.58
2022-10-17T00:08:44.275Z,17.63
2022-10-17T00:11:19.892Z,73.82
2022-10-17T00:13:49.873Z,103.88
2022-10-17T00:16:26.119Z,37.58
2022-10-17T00:18:54.057Z,19.75
2022-10-17T00:21:22.436Z,38.15
2022-10-17T00:23:49.931Z,51.90
2022-10-17T00:26:17.839Z,26.23
2022-10-17T00:28:53.083Z,41.00
2022-10-17T00:31:23.826Z,31.63
2022-10-17T00:33:53.214Z,38.60
2022-10-17T00:36:25.184Z,70.53
2022-10-17T00:38:59.447Z,68.60
2022-10-17T00:41:33.519Z,17.40
2022-10-17T00:44:27.209Z,121.93
2022-10-17T00:46:59.184Z,16.58
2022-10-17T00:49:30.721Z,82.65
2022-10-17T00:52:08.132Z,183.68
2022-10-17T00:54:43.529Z,41.42
2022-10-17T00:57:12.332Z,30.75
2022-10-17T00:59:43.026Z,36.13
2022-10-17T01:02:15.119Z,59.58
2022-10-17T01:04:46.659Z,21.55
2022-10-17T01:07:14.453Z,41.28
2022-10-17T01:09:43.820Z,83.18
2022-10-17T01:12:21.745Z,23.60
2022-10-17T01:14:59.106Z,39.45
2022-10-17T01:18:18.804Z,59.03
2022-10-17T01:21:10.620Z,38.78
2022-10-17T01:23:52.878Z,45.08
2022-10-17T01:26:50.915Z,51.85
2022-10-17T01:29:42.980Z,65.32
2022-10-17T01:32:31.115Z,99.05
2022-10-17T01:35:12.535Z,50.35
2022-10-17T01:38:19.058Z,54.28
2022-10-17T01:40:52.674Z,36.67
2022-10-17T01:43:40.479Z,52.13
2022-10-17T01:46:24.419Z,77.20
2022-10-17T01:48:54.078Z,80.50
2022-10-17T01:51:30.370Z,73.80
2022-10-17T01:54:23.660Z,66.25
2022-10-17T01:56:58.284Z,9.95
2022-10-17T01:59:39.452Z,9.57
2022-10-17T02:02:08.260Z,75.63
2022-10-17T02:04:36.606Z,58.58
2022-10-17T02:07:13.745Z,43.88
2022-10-17T02:09:41.295Z,78.50
2022-10-17T02:13:16.688Z,74.72
2022-10-17T02:15:49.724Z,33.80
2022-10-17T02:18:27.732Z,60.88
2022-10-17T02:21:13.243Z,49.03
2022-10-17T02:24:03.061Z,91.70
2022-10-17T02:27:18.027Z,41.80
2022-10-17T02:29:57.130Z,82.50
2022-10-17T02:32:36.762Z,72.00
2022-10-17T02:35:09.745Z,30.27
2022-10-17T02:37:38.808Z,71.40
2022-10-17T02:40:09.672Z,52.30
2022-10-17T02:42:40.690Z,77.15
2022-10-17T02:45:09.542Z,49.88
2022-10-17T02:48:03.531Z,31.08
2022-10-17T02:50:47.743Z,19.08
2022-10-17T02:53:25.916Z,74.18
2022-10-17T02:56:03.144Z,42.33
2022-10-17T02:58:35.824Z,19.67
2022-10-17T03:01:04.794Z,45.45
2022-10-17T03:03:33.346Z,109.25
2022-10-17T03:06:02.685Z,63.78
2022-10-17T03:08:30.098Z,58.95
2022-10-17T03:10:57.587Z,13.43
2022-10-17T03:13:27.651Z,45.08
2022-10-17T03:15:57.753Z,51.60
2022-10-17T03:18:25.427Z,55.88
2022-10-17T03:20:57.889Z,69.97
2022-10-17T03:23:25.424Z,24.55
2022-10-17T03:25:53.961Z,72.15
2022-10-17T03:28:21.693Z,78.15
2022-10-17T03:30:49.461Z,49.72
2022-10-17T03:33:17.033Z,40.95
2022-10-17T03:35:44.487Z,106.88
2022-10-17T03:38:12.122Z,98.30
2022-10-17T03:40:39.764Z,34.70
2022-10-17T03:43:07.481Z,65.88
2022-10-17T03:45:35.158Z,93.10
2022-10-17T03:48:02.830Z,48.88
2022-10-17T03:50:31.087Z,59.33
2022-10-17T03:53:00.498Z,77.68
2022-10-17T03:55:28.177Z,52.80
2022-10-17T03:57:55.725Z,77.55
2022-10-17T04:00:24.111Z,70.53
2022-10-17T04:02:58.262Z,66.25
2022-10-17T04:05:27.017Z,46.10
2022-10-17T04:07:54.475Z,66.63
2022-10-17T04:10:31.238Z,63.58
2022-10-17T04:12:58.949Z,30.67
2022-10-17T04:15:26.378Z,19.65
2022-10-17T04:17:54.530Z,16.02
2022-10-17T04:20:22.546Z,55.13
2022-10-17T04:22:50.414Z,60.70
2022-10-17T04:25:19.087Z,83.97
2022-10-17T04:27:49.199Z,49.60
2022-10-17T04:30:17.320Z,77.60
2022-10-17T04:32:45.491Z,83.93
2022-10-17T04:35:21.622Z,54.85
2022-10-17T04:37:55.293Z,36.25
2022-10-17T04:40:22.982Z,21.63
2022-10-17T04:42:53.468Z,40.25
2022-10-17T04:45:25.481Z,62.38
2022-10-17T04:47:58.234Z,66.45
2022-10-17T04:50:25.732Z,32.30
2022-10-17T04:53:12.929Z,78.88
2022-10-17T04:55:40.337Z,81.47
2022-10-17T04:58:08.199Z,20.65
2022-10-17T05:00:36.722Z,31.70
2022-10-17T05:03:22.830Z,31.73
2022-10-17T05:05:50.676Z,48.10
2022-10-17T05:08:18.598Z,3.00
2022-10-17T05:10:48.960Z,20.85
2022-10-17T05:13:16.551Z,64.95
2022-10-17T05:15:43.924Z,20.23
2022-10-17T05:18:12.984Z,52.90
2022-10-17T05:20:42.089Z,42.53
2022-10-17T05:23:09.664Z,5.47
2022-10-17T05:25:41.235Z,62.65
2022-10-17T05:28:08.770Z,3.15
2022-10-17T05:30:40.935Z,103.55
2022-10-17T05:33:09.765Z,62.58
2022-10-17T05:35:37.458Z,52.25
2022-10-17T05:38:06.307Z,59.65
2022-10-17T05:40:35.435Z,160.70
2022-10-17T05:43:04.039Z,24.20
2022-10-17T05:45:31.671Z,26.77
2022-10-17T05:47:59.617Z,35.65
2022-10-17T05:50:27.179Z,97.25
2022-10-17T05:53:05.499Z,17.73
2022-10-17T05:55:38.514Z,48.97
2022-10-17T05:58:06.305Z,109.10
2022-10-17T06:00:38.255Z,35.17
2022-10-17T06:03:05.918Z,28.80
2022-10-17T06:05:35.863Z,32.50
2022-10-17T06:08:03.432Z,37.67
2022-10-17T06:10:35.075Z,79.18
2022-10-17T06:13:02.860Z,61.72
2022-10-17T06:15:30.497Z,60.17
2022-10-17T06:18:05.930Z,41.08
2022-10-17T06:20:33.480Z,55.58
2022-10-17T06:23:01.446Z,28.25
2022-10-17T06:25:48.830Z,53.70
2022-10-17T06:28:16.252Z,46.95
2022-10-17T06:30:43.853Z,58.00
2022-10-17T06:33:11.917Z,44.60
2022-10-17T06:35:39.475Z,22.08
2022-10-17T06:38:07.073Z,9.57
2022-10-17T06:40:36.814Z,7.55
2022-10-17T06:43:04.160Z,44.58
2022-10-17T06:45:54.018Z,37.05
2022-10-17T06:48:31.724Z,55.92
2022-10-17T06:51:28.516Z,111.97
2022-10-17T06:53:59.521Z,18.60
2022-10-17T06:56:56.490Z,10.98
2022-10-17T06:59:52.177Z,6.28
2022-10-17T07:02:29.271Z,62.60
2022-10-17T07:04:59.281Z,21.88
2022-10-17T07:07:26.944Z,8.38
2022-10-17T07:09:54.744Z,12.07
2022-10-17T07:12:24.428Z,58.17
2022-10-17T07:14:52.159Z,48.58
2022-10-17T07:17:20.205Z,20.63
2022-10-17T07:19:48.804Z,61.13
2022-10-17T07:22:17.207Z,58.97
2022-10-17T07:24:47.749Z,32.63
2022-10-17T07:27:20.991Z,44.40
2022-10-17T07:29:48.735Z,40.60
2022-10-17T07:32:21.654Z,17.05
2022-10-17T07:34:49.230Z,7.30
2022-10-17T07:37:16.821Z,38.28
2022-10-17T07:39:50.526Z,29.63
2022-10-17T07:42:18.059Z,136.35
2022-10-17T07:44:47.691Z,38.97
2022-10-17T07:47:15.534Z,55.53
2022-10-17T07:49:45.506Z,48.17
2022-10-17T07:52:14.074Z,3.58
2022-10-17T07:54:41.497Z,5.45
2022-10-17T07:57:09.573Z,24.88
2022-10-17T07:59:38.661Z,19.75
2022-10-17T08:02:08.288Z,39.17
2022-10-17T08:04:36.599Z,27.58
2022-10-17T08:07:19.097Z,2.75
2022-10-17T08:09:49.828Z,39.70
2022-10-17T08:12:17.503Z,9.85
2022-10-17T08:14:45.194Z,9.70
2022-10-17T08:17:12.711Z,19.15
2022-10-17T08:19:40.681Z,3.63
2022-10-17T08:22:08.709Z,50.42
2022-10-17T08:24:36.509Z,29.73
2022-10-17T08:27:09.229Z,72.38
2022-10-17T08:29:36.781Z,16.58
2022-10-17T08:32:07.627Z,23.45
2022-10-17T08:34:36.400Z,19.83
2022-10-17T08:37:04.128Z,9.48
2022-10-17T08:39:31.534Z,7.05
2022-10-17T08:42:04.616Z,6.88
2022-10-17T08:45:11.563Z,45.78
2022-10-17T08:47:43.734Z,32.75
2022-10-17T08:50:37.768Z,46.42
2022-10-17T08:53:20.791Z,21.33
2022-10-17T08:55:51.417Z,10.32
2022-10-17T08:58:29.470Z,15.30
2022-10-17T09:01:38.504Z,61.50
2022-10-17T09:04:53.269Z,50.45
2022-10-17T09:07:52.916Z,12.63
2022-10-17T09:10:56.243Z,8.80
2022-10-17T09:14:18.252Z,7.85
2022-10-17T09:17:13.594Z,13.80
2022-10-17T09:20:01.798Z,21.25
2022-10-17T09:22:38.319Z,8.68
2022-10-17T09:25:14.136Z,28.40
2022-10-17T09:27:48.237Z,16.75
2022-10-17T09:30:46.385Z,10.40
2022-10-17T09:33:35.555Z,7.25
2022-10-17T09:36:36.525Z,21.93
2022-10-17T09:39:13.754Z,4.35
2022-10-17T09:41:51.070Z,11.93
2022-10-17T09:44:30.781Z,19.40
2022-10-17T09:47:23.434Z,28.52
2022-10-17T09:49:51.921Z,27.98
2022-10-17T09:52:30.088Z,8.75
2022-10-17T09:55:06.965Z,8.38
2022-10-17T09:58:02.678Z,6.15
2022-10-17T10:00:34.100Z,18.08
2022-10-17T10:03:27.788Z,25.08
2022-10-17T10:06:05.774Z,21.80
2022-10-17T10:08:59.403Z,18.80
2022-10-17T10:11:51.469Z,14.65
2022-10-17T10:14:35.046Z,21.08
2022-10-17T10:17:05.982Z,12.90
2022-10-17T10:19:37.062Z,29.02
2022-10-17T10:22:18.819Z,38.65
2022-10-17T10:24:46.584Z,50.63
2022-10-17T10:27:18.798Z,23.33
2022-10-17T10:29:53.810Z,37.63
2022-10-17T10:32:32.106Z,20.77
2022-10-17T10:35:02.914Z,25.05
2022-10-17T10:37:45.722Z,35.75
2022-10-17T10:40:29.579Z,40.75
2022-10-17T10:43:05.086Z,49.03
2022-10-17T10:45:48.332Z,42.97
2022-10-17T10:48:35.599Z,23.83
2022-10-17T10:51:14.462Z,46.95
2022-10-17T10:54:13.472Z,22.25
2022-10-17T10:56:53.381Z,11.77
2022-10-17T10:59:46.294Z,36.97
2022-10-17T11:02:34.420Z,32.00
2022-10-17T11:05:30.897Z,37.78
2022-10-17T11:08:26.281Z,18.23
2022-10-17T11:11:26.755Z,24.15
2022-10-17T11:14:46.431Z,30.65
2022-10-17T11:17:42.593Z,10.00
2022-10-17T11:20:09.805Z,36.33
2022-10-17T11:22:49.076Z,22.10
2022-10-17T11:25:33.695Z,11.43
2022-10-17T11:28:05.119Z,47.05
2022-10-17T11:30:47.788Z,21.75
2022-10-17T11:33:46.361Z,23.38
2022-10-17T11:36:17.544Z,39.42
2022-10-17T11:39:10.225Z,25.42
2022-10-17T11:42:04.347Z,17.38
2022-10-17T11:44:41.286Z,31.95
2022-10-17T11:47:38.932Z,19.48
2022-10-17T11:53:33.832Z,17.52
2022-10-17T11:56:02.689Z,15.00
2022-10-17T11:59:18.428Z,18.58
2022-10-17T12:01:53.515Z,24.70
2022-10-17T12:05:17.190Z,36.00
2022-10-17T12:07:53.526Z,139.15
2022-10-17T12:10:29.056Z,44.22
2022-10-17T12:12:56.741Z,145.13
2022-10-17T12:15:24.176Z,31.85
2022-10-17T12:18:00.658Z,64.43
2022-10-17T12:20:37.130Z,94.22
2022-10-17T12:23:13.817Z,61.47
2022-10-17T12:26:05.226Z,47.97
2022-10-17T12:28:39.504Z,97.60
2022-10-17T12:31:16.252Z,83.38
2022-10-17T12:33:46.777Z,79.82
2022-10-17T12:36:34.188Z,92.65
2022-10-17T12:39:04.670Z,63.20
2022-10-17T12:41:52.446Z,208.70
2022-10-17T12:44:22.631Z,206.05
2022-10-17T12:47:05.900Z,199.15
2022-10-17T12:49:54.396Z,174.05
2022-10-17T12:52:35.300Z,90.53
2022-10-17T12:55:13.135Z,107.00
2022-10-17T12:58:10.694Z,82.18
2022-10-17T13:01:18.952Z,144.32
2022-10-17T13:03:49.392Z,98.95
2022-10-17T13:06:28.300Z,166.65
2022-10-17T13:09:04.125Z,112.20
2022-10-17T13:11:35.274Z,48.40
2022-10-17T13:14:11.413Z,92.93
2022-10-17T13:17:00.479Z,41.05
2022-10-17T13:19:40.557Z,52.78
2022-10-17T13:22:17.970Z,145.32
2022-10-17T13:24:46.516Z,106.28
2022-10-17T13:27:34.901Z,86.18
2022-10-17T13:30:29.337Z,59.78
2022-10-17T13:33:00.738Z,63.58
2022-10-17T13:35:55.322Z,30.45
2022-10-17T13:38:25.940Z,82.50
2022-10-17T13:41:01.779Z,78.47
2022-10-17T13:46:32.396Z,30.98
2022-10-17T13:48:55.422Z,50.15
2022-10-17T13:51:24.603Z,54.33
2022-10-17T13:53:52.233Z,100.13
2022-10-17T13:56:29.233Z,34.67
2022-10-17T13:59:07.287Z,36.75
2022-10-17T14:01:35.363Z,63.80
2022-10-17T14:04:09.443Z,116.90
2022-10-17T14:06:49.312Z,64.50
2022-10-17T14:09:27.650Z,62.97
2022-10-17T14:12:13.987Z,71.55
2022-10-17T14:15:09.146Z,180.85
2022-10-17T14:17:58.592Z,6.30
2022-10-17T14:23:42.936Z,81.63
2022-10-17T14:26:15.610Z,56.90
2022-10-17T14:28:45.885Z,6.75
2022-10-17T14:31:20.579Z,5.95
2022-10-17T14:33:50.998Z,4.65
2022-10-17T14:36:20.457Z,9.13
2022-10-17T14:38:51.066Z,5.05
2022-10-17T14:41:47.837Z,5.07
2022-10-17T14:44:21.852Z,5.90
2022-10-17T14:46:56.947Z,5.37
2022-10-17T14:49:35.842Z,8.02
2022-10-17T14:52:19.033Z,3.47
2022-10-17T14:54:50.808Z,2.70
2022-10-17T14:57:19.615Z,14.90
2022-10-17T14:59:55.567Z,8.18
2022-10-17T15:02:25.451Z,5.75
2022-10-17T15:04:53.812Z,3.97
2022-10-17T15:07:22.342Z,4.38
2022-10-17T15:09:52.023Z,6.30
2022-10-17T15:12:22.401Z,5.60
2022-10-17T15:14:50.836Z,6.10
2022-10-17T15:17:31.228Z,8.50
2022-10-17T15:19:59.175Z,14.32
2022-10-17T15:22:26.963Z,8.38
2022-10-17T15:24:54.611Z,10.68
2022-10-17T15:27:24.534Z,7.22
2022-10-17T15:29:53.229Z,11.82
2022-10-17T15:32:20.742Z,13.75
2022-10-17T15:34:48.319Z,10.63
2022-10-17T15:37:23.671Z,8.13
2022-10-17T15:39:54.902Z,8.13
2022-10-17T15:42:30.638Z,7.88
2022-10-17T15:44:58.803Z,9.52
2022-10-17T15:47:35.553Z,5.53
2022-10-17T15:50:05.042Z,7.57
2022-10-17T15:52:32.759Z,10.02
2022-10-17T15:55:04.148Z,11.93
2022-10-17T15:57:39.458Z,10.52
2022-10-17T16:00:16.859Z,10.00
2022-10-17T16:02:44.774Z,4.80
2022-10-17T16:05:23.651Z,6.68
2022-10-17T16:07:51.684Z,11.13
2022-10-17T16:10:23.226Z,9.43
2022-10-17T16:12:50.947Z,7.50
2022-10-17T16:15:25.045Z,8.07
2022-10-17T16:17:55.029Z,8.63
2022-10-17T16:20:24.725Z,8.15
2022-10-17T16:22:54.713Z,7.90
2022-10-17T16:25:25.229Z,7.57
2022-10-17T16:27:55.784Z,8.63
2022-10-17T16:30:25.932Z,5.72
2022-10-17T16:32:54.710Z,3.78
2022-10-17T16:35:31.857Z,5.65
2022-10-17T16:38:02.620Z,3.33
2022-10-17T16:40:30.302Z,4.13
2022-10-17T16:42:57.928Z,8.93
2022-10-17T16:45:25.343Z,5.90
2022-10-17T16:47:53.450Z,5.10
2022-10-17T16:50:21.158Z,6.78
2022-10-17T16:52:48.669Z,5.40
2022-10-17T16:55:19.056Z,7.47
2022-10-17T16:57:49.060Z,6.15
2022-10-17T17:00:17.868Z,5.22
2022-10-17T17:02:48.831Z,13.30
2022-10-17T17:05:16.608Z,8.25
2022-10-17T17:07:44.281Z,13.30
2022-10-17T17:10:11.901Z,7.25
2022-10-17T17:12:39.323Z,3.60
2022-10-17T17:15:07.359Z,4.05
2022-10-17T17:17:49.707Z,8.93
2022-10-17T17:20:19.927Z,4.22
2022-10-17T17:22:47.429Z,6.40
2022-10-17T17:25:15.097Z,9.18
2022-10-17T17:27:42.637Z,6.68
2022-10-17T17:30:10.687Z,13.73
2022-10-17T17:32:40.599Z,6.75
2022-10-17T17:35:09.684Z,7.50
2022-10-17T17:37:37.331Z,9.20
2022-10-17T17:40:06.330Z,9.23
2022-10-17T17:42:33.923Z,5.72
2022-10-17T17:45:01.554Z,7.55
2022-10-17T17:47:29.949Z,6.45
2022-10-17T17:49:57.615Z,9.25
2022-10-17T17:52:25.097Z,6.88
2022-10-17T17:54:54.974Z,7.43
2022-10-17T17:57:22.372Z,6.82
2022-10-17T17:59:50.377Z,12.70
2022-10-17T18:02:18.143Z,13.30
2022-10-17T18:04:45.682Z,13.15
2022-10-17T18:07:13.171Z,24.90
2022-10-17T18:09:40.639Z,18.55
2022-10-17T18:12:08.252Z,15.10
2022-10-17T18:14:35.614Z,10.48
2022-10-17T18:17:03.028Z,18.25
2022-10-17T18:19:30.614Z,20.83
2022-10-17T18:21:58.828Z,11.45
2022-10-17T18:24:26.424Z,17.25
2022-10-17T18:26:59.019Z,11.85
2022-10-17T18:29:29.652Z,16.02
2022-10-17T18:31:57.206Z,12.15
2022-10-17T18:34:24.786Z,10.80
2022-10-17T18:36:53.134Z,7.60
2022-10-17T18:39:21.174Z,12.75
2022-10-17T18:41:48.819Z,15.65
2022-10-17T18:44:17.069Z,9.43
2022-10-17T18:49:19.089Z,15.90
2022-10-17T18:51:46.970Z,11.07
2022-10-17T18:54:20.765Z,13.57
2022-10-17T18:56:51.283Z,10.45
2022-10-17T18:59:20.271Z,8.63
2022-10-17T19:01:48.191Z,6.25
2022-10-17T19:04:16.470Z,13.38
2022-10-17T19:06:44.403Z,9.82
2022-10-17T19:09:14.264Z,6.10
2022-10-17T19:11:43.118Z,13.20
2022-10-17T19:14:15.611Z,6.43
2022-10-17T19:16:48.850Z,9.45
2022-10-17T19:19:20.775Z,6.78
2022-10-17T19:21:49.126Z,7.40
2022-10-17T19:24:24.438Z,7.28
2022-10-17T19:26:55.325Z,9.07
2022-10-17T19:29:27.083Z,6.97
2022-10-17T19:34:28.027Z,7.95
2022-10-17T19:36:56.087Z,11.27
2022-10-17T19:39:25.362Z,6.65
2022-10-17T19:41:53.192Z,5.18
2022-10-17T19:44:20.663Z,6.45
2022-10-17T19:46:49.617Z,4.97
2022-10-17T19:49:17.924Z,5.15
2022-10-17T19:51:45.801Z,6.85
2022-10-17T19:54:15.339Z,4.25
2022-10-17T19:56:43.693Z,7.93
2022-10-17T19:59:14.581Z,8.70
2022-10-17T20:01:42.528Z,7.10
2022-10-17T20:04:11.571Z,5.63
2022-10-17T20:06:40.782Z,6.65
2022-10-17T20:09:12.353Z,7.28
2022-10-17T20:11:43.384Z,7.32
2022-10-17T20:14:10.648Z,3.22
2022-10-17T20:16:38.319Z,7.03
2022-10-17T20:19:09.667Z,3.72
2022-10-17T20:21:39.766Z,8.05
2022-10-17T20:24:13.913Z,6.75
2022-10-17T20:26:41.799Z,4.70
2022-10-17T20:29:16.039Z,5.82
2022-10-17T20:31:46.357Z,8.52
2022-10-17T20:34:17.447Z,15.27
2022-10-17T20:36:45.059Z,11.77
2022-10-17T20:39:14.947Z,11.15
2022-10-17T20:41:42.846Z,8.50
2022-10-17T20:44:11.240Z,12.75
2022-10-17T20:46:48.448Z,9.00
2022-10-17T20:49:25.385Z,7.20
2022-10-17T20:51:52.882Z,8.40
2022-10-17T20:54:22.239Z,7.95
2022-10-17T20:56:49.849Z,12.85
2022-10-17T20:59:18.523Z,9.27
2022-10-17T21:01:46.831Z,16.33
2022-10-17T21:04:44.640Z,9.82
2022-10-17T21:07:02.372Z,11.82
2022-10-17T21:09:29.897Z,9.10
2022-10-17T21:11:57.399Z,8.30
2022-10-17T21:14:25.678Z,8.20
2022-10-17T21:16:53.196Z,6.97
2022-10-17T21:19:22.041Z,8.43
2022-10-17T21:21:49.682Z,6.85
2022-10-17T21:24:20.899Z,8.90
2022-10-17T21:26:55.369Z,7.65
2022-10-17T21:29:24.050Z,13.38
2022-10-17T21:31:52.914Z,12.82
2022-10-17T21:34:23.971Z,6.53
2022-10-17T21:36:52.224Z,6.50
2022-10-17T21:39:19.960Z,12.05
2022-10-17T21:41:47.418Z,8.57
2022-10-17T21:44:19.568Z,7.20
2022-10-17T21:46:48.269Z,8.90
2022-10-17T21:49:19.871Z,9.55
2022-10-17T21:51:48.389Z,4.80
2022-10-17T21:54:17.180Z,9.40
2022-10-17T21:56:45.316Z,6.55
2022-10-17T21:59:13.113Z,6.60
2022-10-17T22:01:45.008Z,7.13
2022-10-17T22:04:18.625Z,7.03
2022-10-17T22:06:51.383Z,7.70
2022-10-17T22:09:26.156Z,7.68
2022-10-17T22:11:56.660Z,7.50
2022-10-17T22:14:26.615Z,4.72
2022-10-17T22:16:54.203Z,7.68
2022-10-17T22:19:27.342Z,8.23
2022-10-17T22:21:55.463Z,4.72
2022-10-17T22:24:23.738Z,4.28
2022-10-17T22:26:52.088Z,11.80
2022-10-17T22:29:19.765Z,5.57
2022-10-17T22:31:47.497Z,8.98
2022-10-17T22:34:17.147Z,7.50
2022-10-17T22:36:45.211Z,7.47
2022-10-17T22:39:12.882Z,5.57
2022-10-17T22:41:40.781Z,5.32
2022-10-17T22:44:08.558Z,4.80
2022-10-17T22:46:36.535Z,6.55
2022-10-17T22:49:04.449Z,7.70
2022-10-17T22:51:32.283Z,4.93
2022-10-17T22:53:59.969Z,8.85
2022-10-17T22:56:27.460Z,5.50
2022-10-17T22:58:54.948Z,6.13
2022-10-17T23:01:25.705Z,4.07
2022-10-17T23:03:53.923Z,6.00
2022-10-17T23:06:22.474Z,6.45
2022-10-17T23:08:50.018Z,6.45
2022-10-17T23:11:18.300Z,4.90
2022-10-17T23:13:45.852Z,4.63
2022-10-17T23:16:13.468Z,3.97
2022-10-17T23:18:41.094Z,6.63
2022-10-17T23:21:08.880Z,4.20
2022-10-17T23:23:37.169Z,6.68
2022-10-17T23:26:15.195Z,6.53
2022-10-17T23:28:43.462Z,4.13
2022-10-17T23:31:20.623Z,5.05
2022-10-17T23:33:50.220Z,4.53
2022-10-17T23:36:20.874Z,7.05
2022-10-17T23:38:50.198Z,5.18
2022-10-17T23:41:18.552Z,4.28
2022-10-17T23:43:46.075Z,7.05
2022-10-17T23:46:13.972Z,3.47
2022-10-17T23:48:42.028Z,4.72
2022-10-17T23:51:10.753Z,3.80
2022-10-17T23:53:39.279Z,5.50
2022-10-17T23:56:08.042Z,4.55
2022-10-17T23:58:36.656Z,3.55
